createdAt,value
2023-06-12T00:02:27.118Z,23.20
2023-06-12T00:04:55.738Z,23.10
2023-06-12T00:07:22.964Z,22.90
2023-06-12T00:09:50.079Z,22.80
2023-06-12T00:12:17.066Z,22.80
2023-06-12T00:14:44.001Z,22.90
2023-06-12T00:17:10.841Z,22.90
2023-06-12T00:19:38.642Z,23.00
2023-06-12T00:22:05.650Z,22.90
2023-06-12T00:24:32.495Z,22.80
2023-06-12T00:26:59.291Z,22.80
2023-06-12T00:29:26.080Z,22.70
2023-06-12T00:31:52.958Z,22.60
2023-06-12T00:34:19.786Z,22.60
2023-06-12T00:36:48.631Z,22.50
2023-06-12T00:39:15.659Z,22.50
2023-06-12T00:41:42.517Z,22.60
2023-06-12T00:44:09.309Z,22.60
2023-06-12T00:46:36.242Z,22.40
2023-06-12T00:49:03.831Z,22.40
2023-06-12T00:51:34.291Z,22.20
2023-06-12T00:54:01.560Z,22.30
2023-06-12T00:56:29.174Z,22.20
2023-06-12T00:58:56.590Z,22.30
2023-06-12T01:01:26.510Z,22.30
2023-06-12T01:03:57.586Z,22.10
2023-06-12T01:06:34.469Z,21.80
2023-06-12T01:09:26.814Z,22.10
2023-06-12T01:11:55.048Z,22.00
2023-06-12T01:14:22.437Z,22.00
2023-06-12T01:16:49.481Z,22.00
2023-06-12T01:19:21.198Z,21.90
2023-06-12T01:21:58.921Z,21.90
2023-06-12T01:24:35.022Z,21.90
2023-06-12T01:27:37.051Z,21.80
2023-06-12T01:30:09.881Z,21.70
2023-06-12T01:32:39.380Z,21.70
2023-06-12T01:35:10.662Z,21.70
2023-06-12T01:37:45.056Z,21.60
2023-06-12T01:40:13.847Z,21.60
2023-06-12T01:42:41.714Z,21.60
2023-06-12T01:45:09.344Z,21.50
2023-06-12T01:47:36.596Z,21.50
2023-06-12T01:50:05.175Z,21.40
2023-06-12T01:52:34.117Z,21.40
2023-06-12T01:55:02.035Z,21.40
2023-06-12T01:57:29.136Z,21.30
2023-06-12T01:59:56.199Z,21.20
2023-06-12T02:02:23.457Z,21.30
2023-06-12T02:04:50.505Z,21.30
2023-06-12T02:07:17.935Z,21.30
2023-06-12T02:09:44.985Z,21.30
2023-06-12T02:12:12.459Z,21.00
2023-06-12T02:14:39.332Z,20.90
2023-06-12T02:17:06.861Z,20.90
2023-06-12T02:19:34.048Z,21.00
2023-06-12T02:22:01.501Z,21.00
2023-06-12T02:24:33.311Z,21.00
2023-06-12T02:27:00.565Z,20.90
2023-06-12T02:29:27.542Z,20.80
2023-06-12T02:31:54.509Z,20.70
2023-06-12T02:34:21.465Z,20.70
2023-06-12T02:36:48.948Z,20.70
2023-06-12T02:39:16.363Z,20.60
2023-06-12T02:49:20.348Z,20.50
2023-06-12T02:51:47.776Z,20.30
2023-06-12T02:54:16.335Z,20.50
2023-06-12T02:56:46.041Z,20.50
2023-06-12T02:59:18.805Z,20.50
2023-06-12T03:01:46.117Z,20.40
2023-06-12T03:04:18.076Z,20.40
2023-06-12T03:06:46.148Z,20.40
2023-06-12T03:09:17.208Z,20.30
2023-06-12T03:11:44.677Z,20.30
2023-06-12T03:14:15.799Z,20.20
2023-06-12T03:16:43.047Z,20.20
2023-06-12T03:19:09.899Z,20.40
2023-06-12T03:21:38.072Z,20.30
2023-06-12T03:24:05.607Z,20.20
2023-06-12T03:26:35.132Z,20.20
2023-06-12T03:29:02.524Z,20.10
2023-06-12T03:31:30.162Z,20.10
2023-06-12T03:33:57.634Z,20.00
2023-06-12T03:36:26.282Z,20.20
2023-06-12T03:38:53.529Z,20.00
2023-06-12T03:41:23.912Z,20.00
2023-06-12T03:43:51.196Z,20.10
2023-06-12T03:46:18.551Z,20.10
2023-06-12T03:48:45.524Z,19.90
2023-06-12T03:51:12.487Z,19.80
2023-06-12T03:53:40.281Z,19.90
2023-06-12T03:56:07.931Z,20.00
2023-06-12T03:58:35.110Z,19.90
2023-06-12T04:01:02.187Z,20.00
2023-06-12T04:03:29.496Z,20.00
2023-06-12T04:05:56.557Z,19.90
2023-06-12T04:08:23.560Z,19.80
2023-06-12T04:10:51.451Z,19.90
2023-06-12T04:13:18.739Z,20.00
2023-06-12T04:18:15.696Z,19.90
2023-06-12T04:20:42.630Z,20.10
2023-06-12T04:23:12.459Z,20.00
2023-06-12T04:25:44.468Z,20.00
2023-06-12T04:28:14.711Z,20.00
2023-06-12T04:30:42.923Z,19.70
2023-06-12T04:33:11.063Z,19.80
2023-06-12T04:35:38.382Z,19.80
2023-06-12T04:38:06.423Z,19.70
2023-06-12T07:52:54.092Z,19.70
2023-06-12T07:55:21.678Z,24.10
2023-06-12T07:57:48.941Z,24.10
2023-06-12T08:00:16.404Z,24.10
2023-06-12T08:02:43.525Z,24.10
2023-06-12T08:05:11.743Z,24.20
2023-06-12T08:07:38.830Z,24.30
2023-06-12T08:10:08.614Z,24.20
2023-06-12T08:12:35.871Z,24.20
2023-06-12T08:15:03.887Z,24.30
2023-06-12T08:17:31.159Z,24.50
2023-06-12T08:19:58.726Z,24.60
2023-06-12T08:22:25.755Z,24.70
2023-06-12T08:24:52.830Z,24.80
2023-06-12T08:27:19.770Z,24.80
2023-06-12T08:29:46.580Z,24.80
2023-06-12T08:32:15.507Z,24.90
2023-06-12T08:34:42.388Z,25.00
2023-06-12T08:37:09.244Z,25.10
2023-06-12T08:39:36.232Z,25.20
2023-06-12T08:42:32.072Z,25.30
2023-06-12T08:45:21.001Z,25.50
2023-06-12T08:47:50.436Z,25.60
2023-06-12T08:50:20.810Z,25.70
2023-06-12T08:52:52.783Z,25.60
2023-06-12T08:55:21.272Z,25.50
2023-06-12T08:57:48.865Z,25.60
2023-06-12T09:00:16.630Z,25.60
2023-06-12T09:02:54.448Z,25.50
2023-06-12T09:05:27.493Z,25.70
2023-06-12T09:07:54.929Z,25.90
2023-06-12T09:10:22.470Z,25.70
2023-06-12T09:12:53.898Z,25.90
2023-06-12T09:15:22.016Z,26.00
2023-06-12T09:17:53.897Z,26.00
2023-06-12T09:20:40.636Z,26.20
2023-06-12T09:23:08.862Z,26.20
2023-06-12T09:25:37.406Z,26.00
2023-06-12T09:28:05.220Z,26.20
2023-06-12T09:30:32.576Z,26.30
2023-06-12T09:33:04.409Z,26.30
2023-06-12T09:35:31.338Z,26.40
2023-06-12T09:37:59.763Z,26.50
2023-06-12T09:40:26.601Z,26.60
2023-06-12T09:42:53.494Z,26.60
2023-06-12T09:45:24.640Z,26.60
2023-06-12T09:47:53.152Z,26.90
2023-06-12T09:50:22.776Z,26.70
2023-06-12T09:52:50.420Z,26.80
2023-06-12T09:55:19.077Z,26.90
2023-06-12T09:57:53.590Z,27.00
2023-06-12T10:00:22.443Z,26.90
2023-06-12T10:02:57.445Z,27.20
2023-06-12T10:05:29.943Z,27.30
2023-06-12T10:08:01.037Z,27.50
2023-06-12T10:10:28.531Z,27.60
2023-06-12T10:12:56.738Z,27.40
2023-06-12T10:15:24.164Z,27.80
2023-06-12T10:17:55.279Z,28.00
2023-06-12T10:20:22.759Z,27.80
2023-06-12T10:22:50.883Z,28.00
2023-06-12T10:25:18.688Z,28.10
2023-06-12T10:27:46.599Z,28.10
2023-06-12T10:30:16.727Z,28.10
2023-06-12T10:32:45.957Z,28.20
2023-06-12T10:35:13.543Z,28.20
2023-06-12T10:37:47.777Z,28.40
2023-06-12T10:40:26.521Z,28.30
2023-06-12T10:43:04.188Z,28.60
2023-06-12T10:45:32.902Z,28.60
2023-06-12T10:48:11.099Z,28.70
2023-06-12T10:50:43.496Z,29.00
2023-06-12T10:53:13.877Z,29.20
2023-06-12T10:55:42.473Z,29.10
2023-06-12T10:58:13.995Z,29.20
2023-06-12T11:00:49.681Z,29.60
2023-06-12T11:03:25.559Z,30.20
2023-06-12T11:05:57.288Z,29.70
2023-06-12T11:08:27.891Z,30.10
2023-06-12T11:10:57.824Z,29.60
2023-06-12T11:13:26.061Z,30.00
2023-06-12T11:15:53.998Z,30.10
2023-06-12T11:18:21.292Z,30.60
2023-06-12T11:20:56.071Z,30.60
2023-06-12T11:23:27.926Z,31.10
2023-06-12T11:25:56.944Z,31.00
2023-06-12T11:28:25.037Z,31.20
2023-06-12T11:31:08.715Z,31.40
2023-06-12T11:33:36.996Z,31.30
2023-06-12T11:36:04.271Z,31.40
2023-06-12T11:41:01.053Z,31.80
2023-06-12T11:46:03.777Z,32.90
2023-06-12T11:51:03.350Z,32.60
2023-06-12T11:53:33.875Z,32.20
2023-06-12T11:58:37.707Z,32.60
2023-06-12T12:01:16.274Z,32.80
2023-06-12T12:03:48.036Z,33.40
2023-06-12T12:06:18.971Z,33.60
2023-06-12T12:08:46.054Z,33.30
2023-06-12T12:11:20.543Z,33.40
2023-06-12T12:13:59.914Z,33.20
2023-06-12T12:16:28.490Z,33.90
2023-06-12T12:18:56.230Z,32.60
2023-06-12T12:21:24.743Z,31.40
2023-06-12T12:23:53.805Z,31.30
2023-06-12T12:26:21.543Z,30.90
2023-06-12T12:28:48.871Z,30.60
2023-06-12T12:31:15.864Z,31.30
2023-06-12T12:33:42.774Z,31.90
2023-06-12T12:36:10.143Z,32.70
2023-06-12T12:38:36.968Z,32.40
2023-06-12T12:41:04.026Z,33.70
2023-06-12T12:43:30.919Z,33.70
2023-06-12T12:45:57.983Z,34.20
2023-06-12T12:48:25.263Z,34.70
2023-06-12T12:51:07.003Z,33.90
2023-06-12T12:53:36.860Z,33.60
2023-06-12T12:56:04.133Z,33.50
2023-06-12T12:58:31.157Z,34.40
2023-06-12T13:00:58.335Z,35.10
2023-06-12T13:03:25.299Z,34.40
2023-06-12T13:05:52.557Z,34.10
2023-06-12T13:08:19.445Z,34.30
2023-06-12T13:10:46.405Z,34.30
2023-06-12T13:13:15.293Z,34.50
2023-06-12T13:15:43.988Z,34.70
2023-06-12T13:18:10.966Z,34.40
2023-06-12T13:20:37.846Z,34.90
2023-06-12T13:23:04.614Z,34.70
2023-06-12T13:25:31.579Z,34.50
2023-06-12T13:27:58.655Z,34.10
2023-06-12T13:30:29.083Z,34.90
2023-06-12T13:32:56.741Z,35.10
2023-06-12T13:35:23.789Z,34.00
2023-06-12T13:37:51.286Z,32.60
2023-06-12T13:40:18.758Z,31.70
2023-06-12T13:42:47.592Z,31.20
2023-06-12T13:45:14.576Z,31.00
2023-06-12T13:47:41.589Z,30.80
2023-06-12T13:50:12.426Z,30.60
2023-06-12T13:52:41.399Z,30.60
2023-06-12T13:55:08.553Z,30.40
2023-06-12T13:57:38.633Z,30.10
2023-06-12T14:00:07.100Z,30.20
2023-06-12T14:02:33.916Z,29.80
2023-06-12T14:05:01.106Z,29.90
2023-06-12T14:07:28.661Z,29.80
2023-06-12T14:09:55.597Z,29.50
2023-06-12T14:12:23.903Z,29.80
2023-06-12T14:14:50.812Z,29.70
2023-06-12T14:17:18.508Z,29.40
2023-06-12T14:19:45.414Z,29.80
2023-06-12T14:22:14.048Z,29.70
2023-06-12T14:24:43.082Z,29.50
2023-06-12T14:27:09.974Z,29.30
2023-06-12T14:29:36.775Z,29.40
2023-06-12T14:32:04.083Z,29.50
2023-06-12T14:34:31.054Z,29.50
2023-06-12T14:36:58.068Z,29.70
2023-06-12T14:39:24.856Z,29.40
2023-06-12T14:41:51.697Z,29.60
2023-06-12T14:44:18.784Z,29.50
2023-06-12T14:46:45.686Z,29.70
2023-06-12T14:49:12.509Z,29.90
2023-06-12T14:51:39.389Z,30.40
2023-06-12T14:54:06.362Z,30.20
2023-06-12T14:56:33.295Z,29.90
2023-06-12T14:59:00.064Z,29.80
2023-06-12T15:01:26.956Z,30.00
2023-06-12T15:03:54.039Z,29.80
2023-06-12T15:06:20.926Z,29.90
2023-06-12T15:08:48.888Z,29.70
2023-06-12T15:11:15.778Z,29.50
2023-06-12T15:13:42.652Z,29.70
2023-06-12T15:16:09.615Z,30.00
2023-06-12T15:21:06.464Z,30.80
2023-06-12T15:23:33.339Z,30.80
2023-06-12T15:26:00.319Z,30.80
2023-06-12T15:28:27.118Z,31.10
2023-06-12T15:30:53.978Z,31.30
2023-06-12T15:33:21.097Z,30.70
2023-06-12T15:35:48.074Z,30.40
2023-06-12T15:38:39.284Z,30.70
2023-06-12T15:41:08.611Z,31.20
2023-06-12T15:43:36.952Z,30.80
2023-06-12T15:46:05.920Z,30.80
2023-06-12T15:48:32.961Z,30.70
2023-06-12T15:51:01.332Z,31.10
2023-06-12T15:53:28.387Z,31.10
2023-06-12T15:55:55.412Z,31.10
2023-06-12T15:58:22.687Z,30.70
2023-06-12T16:00:49.575Z,30.50
2023-06-12T16:03:16.753Z,30.60
2023-06-12T16:05:43.764Z,30.90
2023-06-12T16:08:10.585Z,30.80
2023-06-12T16:10:37.512Z,30.80
2023-06-12T16:13:04.319Z,30.70
2023-06-12T16:15:31.308Z,30.50
2023-06-12T16:17:58.351Z,30.60
2023-06-12T16:20:25.312Z,30.90
2023-06-12T16:22:52.326Z,31.30
2023-06-12T16:25:19.637Z,31.40
2023-06-12T16:27:48.483Z,31.60
2023-06-12T16:30:15.882Z,31.30
2023-06-12T16:32:43.021Z,31.60
2023-06-12T16:35:10.899Z,31.30
2023-06-12T16:37:38.088Z,31.40
2023-06-12T16:40:10.551Z,31.60
2023-06-12T16:42:38.101Z,31.40
2023-06-12T16:45:06.891Z,31.80
2023-06-12T16:47:33.965Z,31.30
2023-06-12T16:50:00.989Z,31.10
2023-06-12T16:52:28.263Z,30.70
2023-06-12T16:54:55.722Z,30.80
2023-06-12T16:57:23.112Z,30.90
2023-06-12T16:59:50.256Z,30.70
2023-06-12T17:02:20.279Z,30.90
2023-06-12T17:04:47.545Z,30.60
2023-06-12T17:07:17.001Z,30.20
2023-06-12T17:09:44.463Z,29.80
2023-06-12T17:12:12.453Z,29.80
2023-06-12T17:14:43.325Z,30.00
2023-06-12T17:17:11.162Z,30.20
2023-06-12T17:19:38.456Z,30.20
2023-06-12T17:22:06.739Z,30.40
2023-06-12T17:24:34.113Z,30.70
2023-06-12T17:27:02.243Z,30.40
2023-06-12T17:29:29.030Z,30.30
2023-06-12T17:31:59.132Z,30.30
2023-06-12T17:34:26.535Z,30.40
2023-06-12T17:36:53.834Z,30.40
2023-06-12T17:39:20.881Z,30.50
2023-06-12T17:41:47.768Z,30.30
2023-06-12T17:44:14.944Z,29.80
2023-06-12T17:46:41.762Z,29.90
2023-06-12T17:49:08.726Z,30.00
2023-06-12T17:51:35.784Z,30.00
2023-06-12T17:54:02.847Z,29.70
2023-06-12T17:56:29.740Z,29.70
2023-06-12T17:58:56.627Z,29.70
2023-06-12T18:01:23.542Z,29.40
2023-06-12T18:03:50.402Z,29.60
2023-06-12T18:06:17.638Z,29.20
2023-06-12T18:08:44.490Z,29.20
2023-06-12T18:11:11.281Z,29.10
2023-06-12T18:13:38.869Z,28.90
2023-06-12T18:16:06.326Z,29.00
2023-06-12T18:18:33.323Z,28.80
2023-06-12T18:21:00.348Z,28.70
2023-06-12T18:23:27.192Z,28.60
2023-06-12T18:25:54.134Z,28.60
2023-06-12T18:28:22.045Z,28.30
2023-06-12T18:30:49.127Z,28.10
2023-06-12T18:33:18.947Z,28.20
2023-06-12T18:35:45.830Z,28.30
2023-06-12T18:38:12.823Z,28.10
2023-06-12T18:40:39.960Z,28.10
2023-06-12T18:43:08.073Z,28.00
2023-06-12T18:45:34.897Z,27.60
2023-06-12T18:48:01.844Z,27.90
2023-06-12T18:50:28.693Z,27.80
2023-06-12T18:52:55.678Z,27.60
2023-06-12T18:55:22.585Z,27.40
2023-06-12T18:57:49.450Z,27.40
2023-06-12T19:00:16.726Z,27.60
2023-06-12T19:02:43.701Z,27.30
2023-06-12T19:05:13.360Z,27.30
2023-06-12T19:07:40.924Z,27.20
2023-06-12T19:10:08.455Z,27.20
2023-06-12T19:12:35.348Z,27.30
2023-06-12T19:15:02.315Z,27.00
2023-06-12T19:17:29.171Z,27.00
2023-06-12T19:19:56.176Z,26.60
2023-06-12T19:22:23.016Z,26.80
2023-06-12T19:24:52.013Z,26.80
2023-06-12T19:27:19.034Z,26.70
2023-06-12T19:29:45.941Z,26.70
2023-06-12T19:32:19.499Z,26.60
2023-06-12T19:34:46.700Z,26.50
2023-06-12T19:37:13.576Z,26.40
2023-06-12T19:39:44.101Z,26.60
2023-06-12T19:42:12.147Z,26.40
2023-06-12T19:44:39.616Z,26.30
2023-06-12T19:47:07.298Z,26.30
2023-06-12T19:49:35.454Z,26.30
2023-06-12T19:52:02.426Z,26.30
2023-06-12T19:54:29.241Z,26.30
2023-06-12T19:56:56.035Z,26.10
2023-06-12T19:59:22.930Z,26.30
2023-06-12T20:01:49.849Z,26.00
2023-06-12T20:04:16.834Z,26.00
2023-06-12T20:06:43.671Z,26.00
2023-06-12T20:09:11.580Z,25.80
2023-06-12T20:11:38.552Z,25.90
2023-06-12T20:14:06.673Z,25.70
2023-06-12T20:16:36.244Z,25.80
2023-06-12T20:19:05.062Z,25.70
2023-06-12T20:21:32.015Z,25.60
2023-06-12T20:23:59.655Z,25.80
2023-06-12T20:26:28.387Z,25.70
2023-06-12T20:28:55.543Z,25.70
2023-06-12T20:31:22.453Z,25.40
2023-06-12T20:33:49.558Z,25.50
2023-06-12T20:36:16.469Z,25.30
2023-06-12T20:38:43.695Z,25.40
2023-06-12T20:41:10.737Z,25.30
2023-06-12T20:43:38.076Z,25.30
2023-06-12T20:46:05.766Z,25.20
2023-06-12T20:48:35.919Z,25.20
2023-06-12T20:51:06.075Z,25.20
2023-06-12T20:53:33.641Z,25.00
2023-06-12T20:56:01.046Z,25.10
2023-06-12T20:58:28.232Z,25.10
2023-06-12T21:00:56.322Z,25.10
2023-06-12T21:03:23.332Z,24.90
2023-06-12T21:05:50.462Z,25.00
2023-06-12T21:08:17.671Z,25.00
2023-06-12T21:10:44.579Z,24.90
2023-06-12T21:13:12.563Z,24.80
2023-06-12T21:15:41.857Z,24.90
2023-06-12T21:18:08.937Z,24.80
2023-06-12T21:20:36.049Z,24.80
2023-06-12T21:23:04.058Z,24.70
2023-06-12T21:25:30.941Z,24.60
2023-06-12T21:27:58.128Z,24.50
2023-06-12T21:30:25.092Z,24.40
2023-06-12T21:32:53.421Z,24.40
2023-06-12T21:35:20.446Z,24.40
2023-06-12T21:37:47.423Z,24.30
2023-06-12T21:40:15.275Z,24.10
2023-06-12T21:42:42.200Z,24.10
2023-06-12T21:45:09.376Z,24.10
2023-06-12T21:47:36.227Z,23.90
2023-06-12T21:50:03.177Z,24.00
2023-06-12T21:52:29.975Z,24.00
2023-06-12T21:54:56.820Z,23.90
2023-06-12T21:57:23.837Z,23.90
2023-06-12T21:59:50.848Z,23.80
2023-06-12T22:02:17.755Z,23.60
2023-06-12T22:04:44.713Z,23.60
2023-06-12T22:07:11.641Z,23.50
2023-06-12T22:09:38.488Z,23.60
2023-06-12T22:12:06.317Z,23.70
2023-06-12T22:14:33.675Z,23.50
2023-06-12T22:17:00.684Z,23.50
2023-06-12T22:19:27.847Z,23.50
2023-06-12T22:21:54.743Z,23.40
2023-06-12T22:24:22.613Z,23.40
2023-06-12T22:26:50.865Z,23.40
2023-06-12T22:29:18.925Z,23.20
2023-06-12T22:31:45.985Z,23.30
2023-06-12T22:34:13.042Z,23.00
2023-06-12T22:36:40.472Z,23.10
2023-06-12T22:39:08.553Z,23.30
2023-06-12T22:41:35.512Z,23.20
2023-06-12T22:44:03.382Z,23.10
2023-06-12T22:46:32.637Z,23.10
2023-06-12T22:49:01.397Z,22.90
2023-06-12T22:51:28.346Z,23.00
2023-06-12T22:53:55.538Z,22.80
2023-06-12T22:56:22.440Z,22.90
2023-06-12T22:58:50.266Z,22.90
2023-06-12T23:01:17.076Z,22.70
2023-06-12T23:03:43.923Z,22.60
2023-06-12T23:06:12.762Z,22.50
2023-06-12T23:08:39.813Z,22.70
2023-06-12T23:11:09.371Z,22.70
2023-06-12T23:13:36.478Z,22.50
2023-06-12T23:16:03.410Z,22.60
2023-06-12T23:18:34.634Z,22.40
2023-06-12T23:21:02.845Z,22.40
2023-06-12T23:23:34.451Z,22.40
2023-06-12T23:26:02.666Z,22.40
2023-06-12T23:28:34.289Z,22.40
2023-06-12T23:31:04.457Z,22.30
2023-06-12T23:33:31.573Z,22.30
2023-06-12T23:35:58.851Z,22.20
2023-06-12T23:38:25.711Z,22.20
2023-06-12T23:40:52.586Z,22.10
2023-06-12T23:43:19.421Z,22.10
2023-06-12T23:45:46.248Z,22.10
2023-06-12T23:48:13.122Z,22.10
2023-06-12T23:50:42.391Z,22.00
2023-06-12T23:53:09.202Z,21.90
2023-06-12T23:55:36.027Z,22.00
2023-06-12T23:58:02.845Z,21.90
